Aérodrome :
LOGIN :

S'inscrire | Disclaimer

   EN    FR    IT 

 










Légende :    VFR   VFR Marginal   IFR   IFR Intensif   IFR Très Intensif
Visi : 
Plafond : 
>= 8 km
>= 3000ft
5 à 8 km
1000 à 3000 ft
1500m à 5 km
500 à 1000 ft
800 à 1500m
200 à 500 ft
< 800m
< 200 ft
Symboles :   Orages  Brouillard  Fortes neiges  Fortes précipitations  Vent > 20 kt
SIGMETs :   Divers  Orages  Givrage  Turbulence  Onde Orograph.  Cendres Volcan.







- Altitude de l'aérodrome : 1036 ft
- Code IATA : ERF


EDDE - Erfurt

DERNIER METAR :
  • 111250Z 29014KT 9999 -SHRA FEW017 SCT036 03/00 Q1018 BECMG 30010KT

METARs EXPIRÉS :
  • 111220Z 29015KT 9999 FEW020 SCT032 03/00 Q1018 BECMG 30010KT
  • 111150Z 29015KT 9999 SCT019 04/00 Q1018 BECMG 30010KT
  • 111120Z 29016KT 9999 FEW015 SCT027 03/00 Q1017 BECMG 30010KT
  • 111050Z 28016KT 9999 SCT018 03/01 Q1017 TEMPO 28015G25KT
  • 111020Z 28016KT 9999 SCT016 03/01 Q1017 TEMPO 28015G25KT

TAF TAF EDDE
Valide du 11 à 12h jusqu'au 12 à 12h UTC


111100Z 1112/1212 28015G25KT 9999 BKN030
BECMG 1112/1115 32012KT
BECMG 1122/1124 33007KT
BECMG 1206/1209 BKN013
PROB30
TEMPO 1207/1212 2500 -SNRA BKN004
Pas de NOTAMs connus pour ce terrain.
1 SIGMET publié pour la FIR München (EDMM) :
 
Givrage fort
EDMM SIGMET 1 VALID 111200/111530 EDZM
EDMM MUNCHEN FIR SEV ICE FCST APRX 50NM WID LINE BTN N5131 E01330 - N5045 E01349 1500FT/FL070 MOV SE NC=



MET'MAP, la Météo Aéronautique d'un coup d'oeil ! - Copyright ORBIFLY Décembre 2007 - Disclaimer

ORBIFLY MET'MAP TEAM :

Programmation & Développement : Alexandra Zaïnal
Conception & Développement : Baudouin d'Aumeries
Co-Programmation & Développement : Marc-Olivier Méhu
Soutien technique & logistique : Manuel Goepfert

Contact : metmap@orbifly.com




SOURCES & CREDITS :

   NOAA